Latest Coastal Weather Observations for Gladstone

IDQ60701

Issued at 6:01 am EST Wednesday 4 May 2016 (issued every 10 minutes, with the page automatically refreshed every 10 minutes)

About coastal observations | Map of coastal stations | Coastal observations for QLD | Marine services | Other Formats
Station Details ID: 039123 Name: GLADSTONE RADAR Lat: -23.86 Lon: 151.26 Height: 74.5 m
Data from the previous 72 hours. | See also: Recent months at Gladstone
Date/Time
EST
Temp

°C
Wind Pressure Rain
since 9am
mm
Weather Cloud Vis
km
Sea
Height
m
Swell
Dir
 
Speed
knots
Gust
knots
hPa Trend Height
m
Period
s
Dir
04/06:00am 23.1 WSW 4 5 1014.1 - 0.0 - - - - - - -
04/05:30am 23.3 WSW 3 5 1013.7 - 0.0 - - - - - - -
04/05:00am 23.3 WSW 4 5 1013.3 - 0.0 - - - - - - -
04/04:30am 23.4 WSW 3 4 1013.3 - 0.0 - - - - - - -
04/04:00am 23.6 WSW 3 4 1013.1 - 0.0 - - - - - - -
04/03:30am 23.7 W 3 4 1012.9 - 0.0 - - - - - - -
04/03:00am 23.6 S 4 5 1012.7 - 0.0 - - - - - - -
04/02:30am 23.6 CALM 0 0 1012.8 - 0.0 - - - - - - -
04/02:00am 23.6 W 1 3 1013.1 - 0.0 - - - - - - -
04/01:30am 23.8 NW 3 5 1013.1 - 0.0 - - - - - - -
04/01:00am 23.9 W 1 4 1013.2 - 0.0 - - - - - - -
04/12:30am 24.1 WNW 3 5 1013.1 - 0.0 - - - - - - -
04/12:00am 24.2 NW 4 6 1013.2 - 0.0 - - - - - - -
 
Date/Time
EST
Temp

°C
Wind Pressure Rain
since 9am
mm
Weather Cloud Vis
km
Sea
Height
m
Swell
Dir
 
Speed
knots
Gust
knots
hPa Trend Height
m
Period
s
Dir
03/11:30pm 24.2 WNW 4 7 1013.5 - 0.0 - - - - - - -
03/11:00pm 24.2 WNW 3 6 1013.7 - 0.0 - - - - - - -
03/10:30pm 24.2 WNW 3 5 1013.8 - 0.0 - - - - - - -
03/10:00pm 24.3 WNW 4 9 1013.9 - 0.0 - - - - - - -
03/09:30pm 24.4 NW 4 7 1014.0 - 0.0 - - - - - - -
03/09:00pm 24.7 NNW 5 7 1014.0 - 0.0 - - - - - - -
03/08:30pm 24.9 NNW 5 8 1014.1 - 0.0 - - - - - - -
03/08:00pm 24.9 NNW 4 6 1014.0 - 0.0 - - - - - - -
03/07:30pm 25.0 NNW 3 6 1013.9 - 0.0 - - - - - - -
03/07:00pm 24.8 N 4 6 1013.2 - 0.0 - - - - - - -
03/06:30pm 25.2 NNE 4 6 1012.8 - 0.0 - - - - - - -
03/06:00pm 25.8 NNW 4 6 1012.3 - 0.0 - - - - - - -
03/05:30pm 25.7 N 3 5 1011.9 - 0.0 - - - - - - -
03/05:00pm 26.3 NNE 4 6 1011.6 - 0.0 - - - - - - -
03/04:30pm 26.5 NNE 4 8 1011.5 - 0.0 - - - - - - -
03/04:00pm 26.9 NNE 3 7 1011.2 - 0.0 - - - - - - -
03/03:30pm 26.5 NE 5 8 1011.2 - 0.0 - - - - - - -
03/03:00pm 27.1 NE 5 11 1011.3 - 0.0 - - - - - - -
03/02:30pm 27.3 NE 7 11 1011.2 - 0.0 - - - - - - -
03/02:00pm 27.7 NE 7 11 1011.5 - 0.0 - - - - - - -
03/01:30pm 28.9 NE 7 11 1011.7 - 0.0 - - - - - - -
03/01:00pm 28.3 NE 8 11 1012.1 - 0.0 - - - - - - -
03/12:30pm 29.6 NE 8 11 1012.5 - 0.0 - - - - - - -
03/12:00pm 29.3 NE 7 11 1013.0 - 0.0 - - - - - - -
03/11:30am 29.9 NE 4 7 1013.7 - 0.0 - - - - - - -
03/11:00am 29.9 NE 6 9 1014.1 - 0.0 - - - - - - -
03/10:30am 29.3 NE 6 9 1014.7 - 0.0 - - - - - - -
03/10:00am 28.6 ENE 5 8 1015.2 - 0.0 - - - - - - -
03/09:30am 28.3 NNE 4 8 1015.4 - 0.0 - - - - - - -
03/09:00am 25.8 NNW 2 5 1015.5 - 0.0 - - - - - - -
03/08:30am 24.3 WNW 2 5 1015.3 - 0.0 - - - - - - -
03/08:00am 23.4 CALM 0 0 1014.9 - 0.0 - - - - - - -
03/07:30am 22.7 ENE 1 4 1014.8 - 0.0 - - - - - - -
03/07:00am 22.0 SW 2 3 1014.8 - 0.0 - - - - - - -
03/06:30am 21.7 WSW 4 5 1014.4 - 0.0 - - - - - - -
03/06:00am 21.7 WSW 3 5 1014.1 - 0.0 - - - - - - -
03/05:30am 22.1 S 2 4 1013.8 - 0.0 - - - - - - -
03/05:00am 22.3 SE 5 7 1013.4 - 0.0 - - - - - - -
03/04:30am 22.8 SSE 6 8 1013.4 - 0.0 - - - - - - -
03/04:00am 22.9 SSW 7 10 1013.5 - 0.0 - - - - - - -
03/03:30am 23.3 SW 5 8 1013.7 - 0.0 - - - - - - -
03/03:00am 23.3 SW 5 7 1013.9 - 0.0 - - - - - - -
03/02:30am 23.0 SW 5 7 1014.2 - 0.0 - - - - - - -
03/02:00am 23.3 W 3 5 1014.1 - 0.0 - - - - - - -
03/01:30am 23.1 WSW 5 8 1014.8 - 0.0 - - - - - - -
03/01:00am 23.3 WSW 5 7 1015.3 - 0.0 - - - - - - -
03/12:30am 23.2 SW 4 5 1015.3 - 0.0 - - - - - - -
03/12:00am 23.4 NNW 3 5 1015.3 - 0.0 - - - - - - -
 
Date/Time
EST
Temp

°C
Wind Pressure Rain
since 9am
mm
Weather Cloud Vis
km
Sea
Height
m
Swell
Dir
 
Speed
knots
Gust
knots
hPa Trend Height
m
Period
s
Dir
02/11:30pm 23.3 WNW 3 4 1015.6 - 0.0 - - - - - - -
02/11:00pm 23.1 W 3 4 1015.6 - 0.0 - - - - - - -
02/10:30pm 23.3 NNE 3 5 1015.5 - 0.0 - - - - - - -
02/10:00pm 23.4 NNE 3 4 1015.6 - 0.0 - - - - - - -
02/09:30pm 23.4 NNE 3 5 1015.5 - 0.0 - - - - - - -
02/09:00pm 23.4 NNE 4 5 1015.5 - 0.0 - - - - - - -
02/08:30pm 23.7 N 3 6 1015.7 - 0.0 - - - - - - -
02/08:00pm 24.0 NNW 4 7 1015.3 - 0.0 - - - - - - -
02/07:30pm 23.9 N 4 7 1015.0 - 0.0 - - - - - - -
02/07:00pm 24.0 NNE 4 5 1014.7 - 0.0 - - - - - - -
02/06:30pm 24.0 NNE 4 6 1014.3 - 0.0 - - - - - - -
02/06:00pm 24.5 NNE 5 7 1014.0 - 0.0 - - - - - - -
02/05:30pm 25.0 NNE 5 8 1013.7 - 0.0 - - - - - - -
02/05:00pm 25.8 NE 6 9 1013.3 - 0.0 - - - - - - -
02/04:30pm 26.9 NE 6 8 1012.9 - 0.0 - - - - - - -
02/04:00pm 27.5 NE 6 11 1012.7 - 0.0 - - - - - - -
02/03:30pm 27.7 NE 8 12 1012.6 - 0.0 - - - - - - -
02/03:00pm 28.9 NE 9 12 1012.7 - 0.0 - - - - - - -
02/02:30pm 30.0 NE 6 12 1012.9 - 0.0 - - - - - - -
02/02:00pm 29.8 NE 8 11 1013.2 - 0.0 - - - - - - -
02/01:30pm 30.1 NE 9 12 1013.2 - 0.0 - - - - - - -
02/01:00pm 30.5 NE 8 12 1013.6 - 0.0 - - - - - - -
02/12:30pm 31.4 NE 7 12 1014.2 - 0.0 - - - - - - -
02/12:00pm 33.1 NE 5 10 1014.6 - 0.0 - - - - - - -
02/11:30am 31.7 NNE 5 8 1015.2 - 0.0 - - - - - - -
02/11:00am 29.9 NNW 4 8 1015.6 - 0.0 - - - - - - -
02/10:30am 29.4 NW 3 6 1016.1 - 0.0 - - - - - - -
02/10:00am 27.4 NW 4 6 1016.5 - 0.0 - - - - - - -
02/09:30am 26.8 WNW 3 5 1016.8 - 0.0 - - - - - - -
02/09:00am 25.9 W 2 5 1016.9 - 0.0 - - - - - - -
02/08:30am 24.5 WSW 2 5 1016.8 - 0.0 - - - - - - -
02/08:00am 23.6 WSW 1 5 1016.8 - 0.0 - - - - - - -
02/07:30am 22.9 S 2 3 1016.5 - 0.0 - - - - - - -
02/07:00am 22.5 CALM 0 0 1016.3 - 0.0 - - - - - - -
02/06:30am 22.1 N 1 4 1016.1 - 0.0 - - - - - - -
02/06:00am 22.3 SW 4 6 1015.8 - 0.0 - - - - - - -
02/05:30am 22.3 SW 4 7 1015.5 - 0.0 - - - - - - -
02/05:00am 22.3 WSW 4 5 1015.0 - 0.0 - - - - - - -
02/04:30am 22.2 WSW 4 5 1014.7 - 0.0 - - - - - - -
02/04:00am 22.3 W 3 4 1014.5 - 0.0 - - - - - - -
02/03:30am 22.5 NNW 2 3 1014.5 - 0.0 - - - - - - -
02/03:00am 22.6 NE 3 4 1014.4 - 0.0 - - - - - - -
02/02:30am 22.6 SW 1 3 1014.7 - 0.0 - - - - - - -
02/02:00am 22.5 WSW 3 4 1015.2 - 0.0 - - - - - - -
02/01:30am 22.6 WSW 3 4 1015.6 - 0.0 - - - - - - -
02/01:00am 22.8 WSW 4 5 1015.9 - 0.0 - - - - - - -
02/12:30am 23.1 W 1 4 1016.1 - 0.0 - - - - - - -
02/12:00am 23.4 WSW 3 5 1016.5 - 0.0 - - - - - - -
 
Date/Time
EST
Temp

°C
Wind Pressure Rain
since 9am
mm
Weather Cloud Vis
km
Sea
Height
m
Swell
Dir
 
Speed
knots
Gust
knots
hPa Trend Height
m
Period
s
Dir
01/11:30pm 23.4 SW 2 4 1016.7 - 0.0 - - - - - - -
01/11:00pm 23.6 NNW 4 7 1016.7 - 0.0 - - - - - - -
01/10:30pm 23.2 WNW 3 4 1016.9 - 0.0 - - - - - - -
01/10:00pm 23.2 CALM 0 2 1016.7 - 0.0 - - - - - - -
01/09:30pm 23.5 NNW 4 7 1016.8 - 0.0 - - - - - - -
01/09:00pm 23.7 NNW 4 6 1017.0 - 0.0 - - - - - - -
01/08:30pm 23.8 N 3 5 1017.3 - 0.0 - - - - - - -
01/08:00pm 23.9 N 4 6 1017.1 - 0.0 - - - - - - -
01/07:30pm 23.7 NNE 4 6 1016.8 - 0.0 - - - - - - -
01/07:00pm 23.9 NE 5 7 1016.3 - 0.0 - - - - - - -
01/06:30pm 24.0 NE 5 7 1016.2 - 0.0 - - - - - - -
01/06:00pm 24.1 NE 5 7 1015.9 - 0.0 - - - - - - -
01/05:30pm 24.4 NE 5 7 1015.8 - 0.0 - - - - - - -
01/05:00pm 24.8 NE 6 10 1015.4 - 0.0 - - - - - - -
01/04:30pm 25.5 NE 7 10 1015.3 - 0.0 - - - - - - -
01/04:00pm 26.9 NE 7 10 1014.8 - 0.0 - - - - - - -
01/03:30pm 27.2 NE 8 12 1014.6 - 0.0 - - - - - - -
01/03:00pm 27.1 NE 7 13 1014.5 - 0.0 - - - - - - -
01/02:30pm 28.1 NE 8 12 1014.4 - 0.0 - - - - - - -
01/02:00pm 29.5 NE 7 10 1014.5 - 0.0 - - - - - - -
01/01:30pm 29.8 NE 7 10 1014.7 - 0.0 - - - - - - -
01/01:00pm 30.1 NE 7 13 1015.2 - 0.0 - - - - - - -
01/12:30pm 30.7 NE 5 9 1015.6 - 0.0 - - - - - - -
01/12:00pm 30.4 ENE 3 5 1016.0 - 0.0 - - - - - - -
01/11:30am 29.7 N 3 7 1016.5 - 0.0 - - - - - - -
01/11:00am 26.6 NW 1 4 1017.2 - 0.0 - - - - - - -
01/10:30am 27.2 SSW 3 5 1017.8 - 0.0 - - - - - - -
01/10:00am 29.0 NE 4 6 1018.2 - 0.0 - - - - - - -
01/09:30am 25.7 NNW 3 5 1018.3 - 0.0 - - - - - - -
01/09:00am 24.9 WSW 2 4 1018.6 - 0.0 - - - - - - -
01/08:30am 24.8 S 1 3 1018.5 - 0.0 - - - - - - -
01/08:00am 23.5 CALM 0 0 1018.3 - 0.0 - - - - - - -
01/07:30am 22.8 SSW 1 4 1018.2 - 0.0 - - - - - - -
01/07:00am 22.5 SW 2 3 1017.8 - 0.0 - - - - - - -
01/06:30am 22.3 SSW 4 5 1017.7 - 0.0 - - - - - - -

Other Formats:

Comma delimited format used in spreadsheet applications
http://www.bom.gov.au/fwo/IDQ60701/IDQ60701.94380.axf

JavaScript Object Notation format (JSON) in row-major order
http://www.bom.gov.au/fwo/IDQ60701/IDQ60701.94380.json